RYR3053 LFOB-EICK
Flight info
| Callsign | RYR3053 |
|---|---|
| Flight time | 1h 21m |
| Altitude | 38000 |
| Route | LGL UN502 JSY DCT LIZAD DCT NAKID DCT EVCOR N160 LEDGO DCT ERTER ERTER1G |
| Aircraft | B738/M-SDE2E3FGHIRWXY/LB1 |
Departure
| Time | 2026-04-26 09:20 |
|---|---|
| Airport | Beauvais-Tillé airport (LFOB) |
Arrival
| Time | 2026-04-26 10:41 |
|---|---|
| Airport | Cork International Airport (EICK) |
| Time | Latitude | Longitude | Altitude | Speed | Heading |
|---|---|---|---|---|---|
| 2026-04-26 09:11 | 49.45935 | 2.11624 | 332 ft | 1 kts | 224° |
| 2026-04-26 09:11 | 49.45937 | 2.11626 | 332 ft | 0 kts | 224° |
| 2026-04-26 09:16 | 49.45932 | 2.11619 | 331 ft | 3 kts | 225° |
| 2026-04-26 09:16 | 49.45910 | 2.11587 | 333 ft | 8 kts | 224° |
| 2026-04-26 09:16 | 49.45851 | 2.11507 | 335 ft | 14 kts | 224° |
| 2026-04-26 09:16 | 49.45777 | 2.11402 | 331 ft | 13 kts | 220° |
| 2026-04-26 09:17 | 49.45716 | 2.11315 | 334 ft | 10 kts | 225° |
| 2026-04-26 09:17 | 49.45705 | 2.11224 | 333 ft | 10 kts | 299° |
| 2026-04-26 09:17 | 49.45741 | 2.11139 | 335 ft | 9 kts | 303° |
| 2026-04-26 09:17 | 49.45774 | 2.11055 | 334 ft | 9 kts | 299° |
| 2026-04-26 09:18 | 49.45784 | 2.10979 | 336 ft | 6 kts | 238° |
| 2026-04-26 09:18 | 49.45749 | 2.10946 | 336 ft | 6 kts | 208° |
| 2026-04-26 09:18 | 49.45713 | 2.10917 | 334 ft | 6 kts | 208° |
| 2026-04-26 09:18 | 49.45677 | 2.10887 | 334 ft | 6 kts | 208° |
| 2026-04-26 09:19 | 49.45642 | 2.10861 | 332 ft | 6 kts | 194° |
| 2026-04-26 09:19 | 49.45610 | 2.10893 | 335 ft | 6 kts | 129° |
| 2026-04-26 09:19 | 49.45581 | 2.10958 | 338 ft | 14 kts | 122° |
| 2026-04-26 09:19 | 49.45395 | 2.11389 | 336 ft | 84 kts | 123° |
| 2026-04-26 09:20 | 49.44953 | 2.12407 | 350 ft | 142 kts | 124° |
| 2026-04-26 09:20 | 49.44343 | 2.13765 | 766 ft | 154 kts | 123° |
| 2026-04-26 09:20 | 49.43704 | 2.15110 | 1483 ft | 159 kts | 121° |
| 2026-04-26 09:20 | 49.43509 | 2.16710 | 2157 ft | 163 kts | 70° |
| 2026-04-26 09:21 | 49.44396 | 2.17985 | 2717 ft | 197 kts | 24° |
| 2026-04-26 09:21 | 49.45812 | 2.17974 | 3307 ft | 217 kts | 345° |
| 2026-04-26 09:21 | 49.47239 | 2.17099 | 3970 ft | 227 kts | 339° |
| 2026-04-26 09:21 | 49.48623 | 2.15723 | 4425 ft | 257 kts | 312° |
| 2026-04-26 09:22 | 49.49309 | 2.13114 | 5039 ft | 273 kts | 271° |
| 2026-04-26 09:22 | 49.49134 | 2.10174 | 5912 ft | 279 kts | 265° |
| 2026-04-26 09:22 | 49.49132 | 2.07226 | 7002 ft | 277 kts | 275° |
| 2026-04-26 09:22 | 49.49168 | 2.04235 | 7820 ft | 284 kts | 259° |
| 2026-04-26 09:23 | 49.48288 | 2.01559 | 8767 ft | 285 kts | 224° |
| 2026-04-26 09:23 | 49.46605 | 1.99968 | 9710 ft | 287 kts | 204° |
| 2026-04-26 09:23 | 49.44824 | 1.98506 | 10512 ft | 294 kts | 213° |
| 2026-04-26 09:23 | 49.43056 | 1.96725 | 10870 ft | 318 kts | 213° |
| 2026-04-26 09:24 | 49.41121 | 1.94837 | 11195 ft | 339 kts | 213° |
| 2026-04-26 09:24 | 49.39111 | 1.92868 | 11882 ft | 346 kts | 213° |
| 2026-04-26 09:24 | 49.37076 | 1.90856 | 12748 ft | 349 kts | 214° |
| 2026-04-26 09:24 | 49.35035 | 1.88827 | 13616 ft | 351 kts | 214° |
| 2026-04-26 09:25 | 49.32974 | 1.86773 | 14398 ft | 355 kts | 214° |
| 2026-04-26 09:25 | 49.30891 | 1.84697 | 15135 ft | 359 kts | 214° |
| 2026-04-26 09:25 | 49.28788 | 1.82603 | 15900 ft | 362 kts | 214° |
| 2026-04-26 09:25 | 49.26666 | 1.80492 | 16622 ft | 366 kts | 214° |
| 2026-04-26 09:26 | 49.24545 | 1.78388 | 17307 ft | 370 kts | 214° |
| 2026-04-26 09:26 | 49.22437 | 1.76098 | 18025 ft | 373 kts | 225° |
| 2026-04-26 09:26 | 49.20954 | 1.72897 | 18772 ft | 371 kts | 245° |
| 2026-04-26 09:26 | 49.19836 | 1.69330 | 19405 ft | 374 kts | 244° |
| 2026-04-26 09:27 | 49.18614 | 1.65778 | 19962 ft | 380 kts | 243° |
| 2026-04-26 09:27 | 49.17356 | 1.62211 | 20582 ft | 383 kts | 243° |
| 2026-04-26 09:27 | 49.16083 | 1.58619 | 21205 ft | 386 kts | 243° |
| 2026-04-26 09:27 | 49.14803 | 1.55003 | 21828 ft | 389 kts | 243° |
| 2026-04-26 09:28 | 49.13516 | 1.51356 | 22427 ft | 392 kts | 243° |
| 2026-04-26 09:28 | 49.12218 | 1.47674 | 23007 ft | 395 kts | 244° |
| 2026-04-26 09:28 | 49.10912 | 1.43968 | 23590 ft | 398 kts | 244° |
| 2026-04-26 09:28 | 49.09594 | 1.40232 | 24104 ft | 401 kts | 244° |
| 2026-04-26 09:29 | 49.08266 | 1.36470 | 24579 ft | 404 kts | 244° |
| 2026-04-26 09:29 | 49.06928 | 1.32688 | 25046 ft | 406 kts | 244° |
| 2026-04-26 09:29 | 49.05581 | 1.28882 | 25464 ft | 410 kts | 244° |
| 2026-04-26 09:29 | 49.04219 | 1.25042 | 25887 ft | 413 kts | 244° |
| 2026-04-26 09:30 | 49.02847 | 1.21175 | 26334 ft | 416 kts | 244° |
| 2026-04-26 09:30 | 49.01495 | 1.17279 | 26792 ft | 417 kts | 245° |
| 2026-04-26 09:30 | 49.00149 | 1.13346 | 27224 ft | 420 kts | 245° |
| 2026-04-26 09:30 | 48.98799 | 1.09387 | 27646 ft | 422 kts | 245° |
| 2026-04-26 09:31 | 48.97438 | 1.05407 | 28056 ft | 425 kts | 245° |
| 2026-04-26 09:31 | 48.96065 | 1.01408 | 28438 ft | 428 kts | 245° |
| 2026-04-26 09:31 | 48.94679 | 0.97386 | 28825 ft | 430 kts | 245° |
| 2026-04-26 09:31 | 48.93285 | 0.93349 | 29186 ft | 433 kts | 245° |
| 2026-04-26 09:32 | 48.91881 | 0.89289 | 29563 ft | 435 kts | 245° |
| 2026-04-26 09:32 | 48.90469 | 0.85215 | 29947 ft | 436 kts | 245° |
| 2026-04-26 09:32 | 48.89052 | 0.81135 | 30408 ft | 436 kts | 245° |
| 2026-04-26 09:32 | 48.87627 | 0.77065 | 30731 ft | 437 kts | 245° |
| 2026-04-26 09:33 | 48.86181 | 0.72995 | 31074 ft | 438 kts | 245° |
| 2026-04-26 09:33 | 48.84732 | 0.68932 | 31488 ft | 437 kts | 245° |
| 2026-04-26 09:33 | 48.83289 | 0.64885 | 31923 ft | 435 kts | 245° |
| 2026-04-26 09:33 | 48.81851 | 0.60849 | 32315 ft | 434 kts | 245° |
| 2026-04-26 09:34 | 48.80453 | 0.56795 | 32655 ft | 433 kts | 250° |
| 2026-04-26 09:34 | 48.79746 | 0.52430 | 32951 ft | 425 kts | 270° |
| 2026-04-26 09:34 | 48.79918 | 0.47992 | 33425 ft | 419 kts | 281° |
| 2026-04-26 09:34 | 48.80566 | 0.43701 | 33802 ft | 417 kts | 287° |
| 2026-04-26 09:35 | 48.81359 | 0.39465 | 34074 ft | 418 kts | 287° |
| 2026-04-26 09:35 | 48.82181 | 0.35225 | 34380 ft | 419 kts | 287° |
| 2026-04-26 09:35 | 48.82993 | 0.30989 | 34721 ft | 417 kts | 287° |
| 2026-04-26 09:35 | 48.83785 | 0.26760 | 35053 ft | 416 kts | 286° |
| 2026-04-26 09:36 | 48.84561 | 0.22532 | 35343 ft | 416 kts | 286° |
| 2026-04-26 09:36 | 48.85325 | 0.18304 | 35619 ft | 416 kts | 286° |
| 2026-04-26 09:36 | 48.86083 | 0.14069 | 35912 ft | 415 kts | 286° |
| 2026-04-26 09:36 | 48.86825 | 0.09899 | 36218 ft | 414 kts | 286° |
| 2026-04-26 09:37 | 48.87573 | 0.05683 | 36509 ft | 413 kts | 286° |
| 2026-04-26 09:37 | 48.88321 | 0.01463 | 36776 ft | 413 kts | 286° |
| 2026-04-26 09:37 | 48.89065 | -0.02748 | 37053 ft | 413 kts | 285° |
| 2026-04-26 09:37 | 48.89806 | -0.06946 | 37410 ft | 410 kts | 285° |
| 2026-04-26 09:38 | 48.90542 | -0.11130 | 37680 ft | 410 kts | 285° |
| 2026-04-26 09:38 | 48.91278 | -0.15314 | 37898 ft | 411 kts | 285° |
| 2026-04-26 09:38 | 48.92014 | -0.19510 | 38115 ft | 410 kts | 285° |
| 2026-04-26 09:38 | 48.92748 | -0.23707 | 38261 ft | 412 kts | 285° |
| 2026-04-26 09:39 | 48.93481 | -0.27941 | 38256 ft | 415 kts | 285° |
| 2026-04-26 09:39 | 48.94919 | -0.36434 | 38259 ft | 413 kts | 285° |
| 2026-04-26 09:40 | 48.96328 | -0.44836 | 38254 ft | 407 kts | 285° |
| 2026-04-26 09:40 | 48.97723 | -0.53173 | 38259 ft | 406 kts | 285° |
| 2026-04-26 09:41 | 48.99108 | -0.61476 | 38260 ft | 404 kts | 285° |
| 2026-04-26 09:41 | 49.00486 | -0.69773 | 38259 ft | 404 kts | 285° |
| 2026-04-26 09:42 | 49.01858 | -0.78080 | 38253 ft | 405 kts | 284° |
| 2026-04-26 09:42 | 49.03228 | -0.86413 | 38260 ft | 406 kts | 284° |
| 2026-04-26 09:43 | 49.04600 | -0.94795 | 38267 ft | 408 kts | 284° |
| 2026-04-26 09:43 | 49.05961 | -1.03159 | 38249 ft | 410 kts | 284° |
| 2026-04-26 09:44 | 49.07331 | -1.11611 | 38254 ft | 411 kts | 284° |
| 2026-04-26 09:44 | 49.08699 | -1.20087 | 38257 ft | 412 kts | 284° |
| 2026-04-26 09:45 | 49.10079 | -1.28598 | 38251 ft | 413 kts | 284° |
| 2026-04-26 09:45 | 49.11454 | -1.37102 | 38242 ft | 413 kts | 283° |
| 2026-04-26 09:46 | 49.12821 | -1.45604 | 38249 ft | 412 kts | 283° |
| 2026-04-26 09:46 | 49.14180 | -1.54104 | 38251 ft | 411 kts | 283° |
| 2026-04-26 09:47 | 49.15529 | -1.62585 | 38252 ft | 410 kts | 283° |
| 2026-04-26 09:47 | 49.16868 | -1.71050 | 38248 ft | 410 kts | 283° |
| 2026-04-26 09:48 | 49.18199 | -1.79505 | 38248 ft | 409 kts | 283° |
| 2026-04-26 09:48 | 49.19520 | -1.87941 | 38246 ft | 408 kts | 283° |
| 2026-04-26 09:49 | 49.20835 | -1.96375 | 38246 ft | 408 kts | 283° |
| 2026-04-26 09:49 | 49.22143 | -2.04815 | 38257 ft | 408 kts | 283° |
| 2026-04-26 09:50 | 49.23304 | -2.11803 | 38251 ft | 408 kts | 284° |
| 2026-04-26 09:50 | 49.24765 | -2.20199 | 38256 ft | 409 kts | 284° |
| 2026-04-26 09:51 | 49.26222 | -2.28618 | 38251 ft | 410 kts | 283° |
| 2026-04-26 09:51 | 49.27665 | -2.37063 | 38247 ft | 410 kts | 283° |
| 2026-04-26 09:52 | 49.29097 | -2.45518 | 38245 ft | 410 kts | 283° |
| 2026-04-26 09:52 | 49.31233 | -2.58225 | 38240 ft | 411 kts | 283° |
| 2026-04-26 09:53 | 49.32652 | -2.66716 | 38240 ft | 411 kts | 283° |
| 2026-04-26 09:53 | 49.34065 | -2.75211 | 38238 ft | 411 kts | 283° |
| 2026-04-26 09:54 | 49.35472 | -2.83716 | 38252 ft | 412 kts | 283° |
| 2026-04-26 09:54 | 49.36874 | -2.92231 | 38251 ft | 412 kts | 283° |
| 2026-04-26 09:55 | 49.38271 | -3.00764 | 38250 ft | 412 kts | 283° |
| 2026-04-26 09:55 | 49.39664 | -3.09308 | 38254 ft | 413 kts | 283° |
| 2026-04-26 09:56 | 49.41042 | -3.17806 | 38248 ft | 413 kts | 283° |
| 2026-04-26 09:56 | 49.42423 | -3.26368 | 38255 ft | 413 kts | 283° |
| 2026-04-26 09:57 | 49.43799 | -3.34946 | 38253 ft | 414 kts | 282° |
| 2026-04-26 09:57 | 49.45171 | -3.43536 | 38253 ft | 414 kts | 282° |
| 2026-04-26 09:58 | 49.46537 | -3.52140 | 38253 ft | 414 kts | 282° |
| 2026-04-26 09:58 | 49.47897 | -3.60744 | 38264 ft | 415 kts | 282° |
| 2026-04-26 09:59 | 49.49252 | -3.69365 | 38253 ft | 415 kts | 282° |
| 2026-04-26 09:59 | 49.50600 | -3.77992 | 38255 ft | 415 kts | 282° |
| 2026-04-26 10:00 | 49.51941 | -3.86609 | 38257 ft | 414 kts | 282° |
| 2026-04-26 10:00 | 49.53274 | -3.95231 | 38257 ft | 414 kts | 282° |
| 2026-04-26 10:01 | 49.54599 | -4.03844 | 38259 ft | 413 kts | 282° |
| 2026-04-26 10:01 | 49.55917 | -4.12458 | 38258 ft | 413 kts | 281° |
| 2026-04-26 10:02 | 49.57229 | -4.21066 | 38258 ft | 412 kts | 281° |
| 2026-04-26 10:02 | 49.58545 | -4.29658 | 38255 ft | 413 kts | 284° |
| 2026-04-26 10:03 | 49.60935 | -4.37715 | 38251 ft | 417 kts | 301° |
| 2026-04-26 10:03 | 49.64169 | -4.45071 | 38260 ft | 417 kts | 301° |
| 2026-04-26 10:04 | 49.67367 | -4.52538 | 38274 ft | 417 kts | 300° |
| 2026-04-26 10:04 | 49.70551 | -4.60041 | 38266 ft | 418 kts | 300° |
| 2026-04-26 10:05 | 49.73931 | -4.67376 | 38261 ft | 420 kts | 305° |
| 2026-04-26 10:05 | 49.77606 | -4.74425 | 38264 ft | 421 kts | 306° |
| 2026-04-26 10:06 | 49.81292 | -4.81474 | 38267 ft | 421 kts | 305° |
| 2026-04-26 10:06 | 49.84947 | -4.88572 | 38266 ft | 422 kts | 305° |
| 2026-04-26 10:07 | 49.88584 | -4.95711 | 38272 ft | 422 kts | 305° |
| 2026-04-26 10:07 | 49.92213 | -5.02871 | 38265 ft | 422 kts | 305° |
| 2026-04-26 10:08 | 49.95840 | -5.10045 | 38266 ft | 422 kts | 305° |
| 2026-04-26 10:08 | 49.99464 | -5.17233 | 38266 ft | 422 kts | 305° |
| 2026-04-26 10:09 | 50.03083 | -5.24429 | 38267 ft | 422 kts | 304° |
| 2026-04-26 10:09 | 50.06694 | -5.31631 | 38264 ft | 422 kts | 304° |
| 2026-04-26 10:10 | 50.10302 | -5.38844 | 38271 ft | 422 kts | 304° |
| 2026-04-26 10:10 | 50.13904 | -5.46065 | 38264 ft | 422 kts | 304° |
| 2026-04-26 10:11 | 50.17499 | -5.53292 | 38272 ft | 422 kts | 304° |
| 2026-04-26 10:11 | 50.21085 | -5.60523 | 38274 ft | 421 kts | 304° |
| 2026-04-26 10:12 | 50.24596 | -5.67612 | 38239 ft | 402 kts | 304° |
| 2026-04-26 10:12 | 50.26278 | -5.71008 | 38244 ft | 388 kts | 304° |
| 2026-04-26 10:12 | 50.27897 | -5.74284 | 38263 ft | 374 kts | 303° |
| 2026-04-26 10:13 | 50.29479 | -5.77495 | 38138 ft | 376 kts | 303° |
| 2026-04-26 10:13 | 50.31102 | -5.80812 | 37221 ft | 392 kts | 303° |
| 2026-04-26 10:13 | 50.32787 | -5.84259 | 36262 ft | 403 kts | 304° |
| 2026-04-26 10:13 | 50.34505 | -5.87771 | 35531 ft | 409 kts | 304° |
| 2026-04-26 10:14 | 50.36234 | -5.91300 | 35036 ft | 408 kts | 304° |
| 2026-04-26 10:14 | 50.37954 | -5.94809 | 34689 ft | 404 kts | 304° |
| 2026-04-26 10:14 | 50.39655 | -5.98285 | 34340 ft | 400 kts | 304° |
| 2026-04-26 10:14 | 50.41341 | -6.01734 | 33909 ft | 397 kts | 304° |
| 2026-04-26 10:15 | 50.43018 | -6.05173 | 33421 ft | 396 kts | 303° |
| 2026-04-26 10:15 | 50.44690 | -6.08609 | 32957 ft | 395 kts | 303° |
| 2026-04-26 10:15 | 50.46351 | -6.12027 | 32570 ft | 392 kts | 303° |
| 2026-04-26 10:15 | 50.47998 | -6.15419 | 32160 ft | 390 kts | 303° |
| 2026-04-26 10:16 | 50.49645 | -6.18818 | 31687 ft | 390 kts | 303° |
| 2026-04-26 10:16 | 50.51282 | -6.22199 | 31316 ft | 388 kts | 303° |
| 2026-04-26 10:16 | 50.52908 | -6.25561 | 30937 ft | 386 kts | 303° |
| 2026-04-26 10:16 | 50.54524 | -6.28908 | 30574 ft | 383 kts | 303° |
| 2026-04-26 10:17 | 50.56131 | -6.32239 | 30196 ft | 381 kts | 303° |
| 2026-04-26 10:17 | 50.57725 | -6.35549 | 29782 ft | 378 kts | 303° |
| 2026-04-26 10:17 | 50.59306 | -6.38835 | 29424 ft | 375 kts | 303° |
| 2026-04-26 10:17 | 50.60876 | -6.42103 | 29034 ft | 373 kts | 303° |
| 2026-04-26 10:18 | 50.62433 | -6.45347 | 28665 ft | 370 kts | 303° |
| 2026-04-26 10:18 | 50.63979 | -6.48573 | 28292 ft | 368 kts | 303° |
| 2026-04-26 10:18 | 50.65516 | -6.51784 | 27924 ft | 366 kts | 303° |
| 2026-04-26 10:18 | 50.67045 | -6.54983 | 27563 ft | 364 kts | 303° |
| 2026-04-26 10:19 | 50.68566 | -6.58169 | 27197 ft | 363 kts | 303° |
| 2026-04-26 10:19 | 50.70082 | -6.61348 | 26837 ft | 362 kts | 303° |
| 2026-04-26 10:19 | 50.71592 | -6.64518 | 26472 ft | 361 kts | 303° |
| 2026-04-26 10:19 | 50.73096 | -6.67680 | 26110 ft | 360 kts | 303° |
| 2026-04-26 10:20 | 50.74597 | -6.70839 | 25751 ft | 359 kts | 303° |
| 2026-04-26 10:20 | 50.75587 | -6.72927 | 25516 ft | 359 kts | 303° |
| 2026-04-26 10:20 | 50.77588 | -6.77147 | 25035 ft | 358 kts | 303° |
| 2026-04-26 10:20 | 50.79079 | -6.80297 | 24678 ft | 358 kts | 303° |
| 2026-04-26 10:21 | 50.80568 | -6.83445 | 24323 ft | 358 kts | 303° |
| 2026-04-26 10:21 | 50.82055 | -6.86594 | 23948 ft | 358 kts | 303° |
| 2026-04-26 10:21 | 50.83544 | -6.89750 | 23541 ft | 358 kts | 303° |
| 2026-04-26 10:21 | 50.85029 | -6.92902 | 23149 ft | 357 kts | 303° |
| 2026-04-26 10:22 | 50.86491 | -6.96009 | 22770 ft | 356 kts | 303° |
| 2026-04-26 10:22 | 50.87965 | -6.99145 | 22403 ft | 354 kts | 303° |
| 2026-04-26 10:22 | 50.89432 | -7.02268 | 22045 ft | 353 kts | 303° |
| 2026-04-26 10:22 | 50.90893 | -7.05383 | 21686 ft | 351 kts | 303° |
| 2026-04-26 10:23 | 50.92346 | -7.08485 | 21346 ft | 350 kts | 304° |
| 2026-04-26 10:23 | 50.93813 | -7.11563 | 20985 ft | 350 kts | 307° |
| 2026-04-26 10:23 | 50.95481 | -7.14381 | 20630 ft | 351 kts | 314° |
| 2026-04-26 10:23 | 50.97264 | -7.17014 | 20283 ft | 350 kts | 315° |
| 2026-04-26 10:24 | 50.99069 | -7.19604 | 19933 ft | 349 kts | 316° |
| 2026-04-26 10:24 | 51.00866 | -7.22192 | 19579 ft | 349 kts | 315° |
| 2026-04-26 10:24 | 51.02649 | -7.24790 | 19229 ft | 348 kts | 315° |
| 2026-04-26 10:24 | 51.04425 | -7.27404 | 18887 ft | 347 kts | 315° |
| 2026-04-26 10:25 | 51.06186 | -7.30018 | 18527 ft | 344 kts | 315° |
| 2026-04-26 10:25 | 51.07911 | -7.32588 | 18119 ft | 336 kts | 315° |
| 2026-04-26 10:25 | 51.09592 | -7.35102 | 17752 ft | 327 kts | 315° |
| 2026-04-26 10:25 | 51.11227 | -7.37553 | 17414 ft | 320 kts | 315° |
| 2026-04-26 10:26 | 51.12842 | -7.39978 | 17095 ft | 319 kts | 315° |
| 2026-04-26 10:26 | 51.14458 | -7.42408 | 16772 ft | 320 kts | 315° |
| 2026-04-26 10:26 | 51.16074 | -7.44841 | 16442 ft | 320 kts | 315° |
| 2026-04-26 10:26 | 51.17694 | -7.47281 | 16117 ft | 321 kts | 315° |
| 2026-04-26 10:27 | 51.19317 | -7.49727 | 15790 ft | 321 kts | 315° |
| 2026-04-26 10:27 | 51.20941 | -7.52178 | 15459 ft | 322 kts | 315° |
| 2026-04-26 10:27 | 51.22571 | -7.54640 | 15123 ft | 323 kts | 315° |
| 2026-04-26 10:27 | 51.24204 | -7.57109 | 14790 ft | 324 kts | 315° |
| 2026-04-26 10:28 | 51.25842 | -7.59588 | 14458 ft | 325 kts | 315° |
| 2026-04-26 10:28 | 51.27483 | -7.62075 | 14124 ft | 326 kts | 315° |
| 2026-04-26 10:28 | 51.29130 | -7.64573 | 13749 ft | 327 kts | 315° |
| 2026-04-26 10:28 | 51.30776 | -7.67073 | 13401 ft | 326 kts | 316° |
| 2026-04-26 10:29 | 51.32414 | -7.69561 | 13038 ft | 321 kts | 316° |
| 2026-04-26 10:29 | 51.34007 | -7.71984 | 12727 ft | 311 kts | 316° |
| 2026-04-26 10:29 | 51.35536 | -7.74311 | 12389 ft | 304 kts | 315° |
| 2026-04-26 10:29 | 51.37048 | -7.76616 | 12064 ft | 297 kts | 315° |
| 2026-04-26 10:30 | 51.38531 | -7.78879 | 11768 ft | 294 kts | 315° |
| 2026-04-26 10:30 | 51.40015 | -7.81147 | 11470 ft | 296 kts | 315° |
| 2026-04-26 10:30 | 51.41504 | -7.83425 | 11161 ft | 297 kts | 315° |
| 2026-04-26 10:30 | 51.43004 | -7.85722 | 10843 ft | 299 kts | 314° |
| 2026-04-26 10:31 | 51.44502 | -7.88017 | 10523 ft | 295 kts | 314° |
| 2026-04-26 10:31 | 51.45963 | -7.90255 | 10346 ft | 285 kts | 314° |
| 2026-04-26 10:31 | 51.47395 | -7.92452 | 10086 ft | 286 kts | 314° |
| 2026-04-26 10:31 | 51.48837 | -7.94670 | 9778 ft | 288 kts | 314° |
| 2026-04-26 10:32 | 51.50285 | -7.96899 | 9467 ft | 287 kts | 314° |
| 2026-04-26 10:32 | 51.51718 | -7.99103 | 9159 ft | 283 kts | 314° |
| 2026-04-26 10:32 | 51.53126 | -8.01270 | 8861 ft | 277 kts | 314° |
| 2026-04-26 10:32 | 51.54510 | -8.03404 | 8567 ft | 277 kts | 314° |
| 2026-04-26 10:33 | 51.55909 | -8.05593 | 8088 ft | 280 kts | 311° |
| 2026-04-26 10:33 | 51.56934 | -8.08184 | 7702 ft | 272 kts | 290° |
| 2026-04-26 10:33 | 51.57591 | -8.10984 | 7380 ft | 264 kts | 290° |
| 2026-04-26 10:33 | 51.58271 | -8.13703 | 7063 ft | 260 kts | 291° |
| 2026-04-26 10:34 | 51.58957 | -8.16384 | 6741 ft | 259 kts | 291° |
| 2026-04-26 10:34 | 51.59657 | -8.19093 | 6416 ft | 265 kts | 291° |
| 2026-04-26 10:34 | 51.60365 | -8.21816 | 6263 ft | 256 kts | 292° |
| 2026-04-26 10:34 | 51.61028 | -8.24354 | 6126 ft | 236 kts | 292° |
| 2026-04-26 10:35 | 51.61642 | -8.26701 | 5972 ft | 219 kts | 292° |
| 2026-04-26 10:35 | 51.62213 | -8.28888 | 5850 ft | 205 kts | 292° |
| 2026-04-26 10:35 | 51.62753 | -8.30953 | 5576 ft | 198 kts | 292° |
| 2026-04-26 10:35 | 51.63283 | -8.32989 | 5222 ft | 196 kts | 292° |
| 2026-04-26 10:36 | 51.63810 | -8.35009 | 4859 ft | 195 kts | 292° |
| 2026-04-26 10:36 | 51.64365 | -8.36959 | 4475 ft | 194 kts | 303° |
| 2026-04-26 10:36 | 51.65368 | -8.38237 | 4236 ft | 183 kts | 346° |
| 2026-04-26 10:36 | 51.66588 | -8.38544 | 3995 ft | 176 kts | 345° |
| 2026-04-26 10:37 | 51.67680 | -8.39357 | 3781 ft | 171 kts | 333° |
| 2026-04-26 10:37 | 51.68774 | -8.40061 | 3549 ft | 167 kts | 341° |
| 2026-04-26 10:37 | 51.69879 | -8.40676 | 3315 ft | 167 kts | 341° |
| 2026-04-26 10:37 | 51.70972 | -8.41310 | 3085 ft | 167 kts | 340° |
| 2026-04-26 10:38 | 51.72061 | -8.41953 | 2859 ft | 167 kts | 340° |
| 2026-04-26 10:38 | 51.73146 | -8.42596 | 2637 ft | 166 kts | 340° |
| 2026-04-26 10:38 | 51.74229 | -8.43240 | 2417 ft | 166 kts | 340° |
| 2026-04-26 10:38 | 51.75317 | -8.43886 | 2174 ft | 166 kts | 339° |
| 2026-04-26 10:39 | 51.76395 | -8.44524 | 1955 ft | 164 kts | 339° |
| 2026-04-26 10:39 | 51.77461 | -8.45158 | 1736 ft | 163 kts | 339° |
| 2026-04-26 10:39 | 51.78508 | -8.45779 | 1500 ft | 156 kts | 339° |
| 2026-04-26 10:39 | 51.79501 | -8.46368 | 1277 ft | 148 kts | 340° |
| 2026-04-26 10:40 | 51.80435 | -8.46922 | 1160 ft | 138 kts | 340° |
| 2026-04-26 10:40 | 51.81351 | -8.47436 | 1102 ft | 138 kts | 341° |
| 2026-04-26 10:40 | 51.81969 | -8.47772 | 924 ft | 139 kts | 338° |
| 2026-04-26 10:40 | 51.82840 | -8.48363 | 638 ft | 131 kts | 340° |
| 2026-04-26 10:41 | 51.83660 | -8.48834 | 504 ft | 117 kts | 341° |
| 2026-04-26 10:41 | 51.84222 | -8.49166 | 503 ft | 56 kts | 340° |
| 2026-04-26 10:41 | 51.84543 | -8.49356 | 503 ft | 40 kts | 341° |
| 2026-04-26 10:41 | 51.84721 | -8.49461 | 503 ft | 14 kts | 338° |
| 2026-04-26 10:42 | 51.84772 | -8.49424 | 503 ft | 9 kts | 66° |
| 2026-04-26 10:42 | 51.84790 | -8.49349 | 503 ft | 5 kts | 71° |
| 2026-04-26 10:42 | 51.84799 | -8.49295 | 503 ft | 5 kts | 80° |
| 2026-04-26 10:42 | 51.84794 | -8.49240 | 503 ft | 5 kts | 116° |
| 2026-04-26 10:43 | 51.84765 | -8.49205 | 503 ft | 5 kts | 154° |
| 2026-04-26 10:43 | 51.84737 | -8.49187 | 503 ft | 3 kts | 156° |
| 2026-04-26 10:43 | 51.84729 | -8.49155 | 503 ft | 4 kts | 88° |
| 2026-04-26 10:43 | 51.84735 | -8.49116 | 503 ft | 4 kts | 72° |
| 2026-04-26 10:44 | 51.84743 | -8.49080 | 503 ft | 3 kts | 70° |
| 2026-04-26 10:44 | 51.84750 | -8.49048 | 503 ft | 2 kts | 70° |
| 2026-04-26 10:44 | 51.84754 | -8.49035 | 503 ft | 0 kts | 70° |